sensor_id;sensor_type;location;lat;lon;timestamp;pressure;altitude;pressure_sealevel;temperature;humidity
47897;BME280;39629;51.400;5.494;2023-02-02T00:02:42;102005.06;;;6.46;100.00
47897;BME280;39629;51.400;5.494;2023-02-02T00:07:43;102006.88;;;6.47;100.00
47897;BME280;39629;51.400;5.494;2023-02-02T00:12:45;101999.66;;;6.40;100.00
47897;BME280;39629;51.400;5.494;2023-02-02T00:17:48;101992.59;;;6.38;100.00
47897;BME280;39629;51.400;5.494;2023-02-02T00:22:49;101990.06;;;6.41;100.00
47897;BME280;39629;51.400;5.494;2023-02-02T00:27:51;101988.34;;;6.41;100.00
47897;BME280;39629;51.400;5.494;2023-02-02T00:32:54;101990.41;;;6.50;100.00
47897;BME280;39629;51.400;5.494;2023-02-02T00:37:57;102000.03;;;6.51;100.00
47897;BME280;39629;51.400;5.494;2023-02-02T00:42:58;101998.69;;;6.64;100.00
47897;BME280;39629;51.400;5.494;2023-02-02T00:48:02;102003.03;;;6.63;100.00
47897;BME280;39629;51.400;5.494;2023-02-02T00:53:03;102004.28;;;6.75;100.00
47897;BME280;39629;51.400;5.494;2023-02-02T00:58:05;102013.38;;;6.88;100.00
47897;BME280;39629;51.400;5.494;2023-02-02T01:03:08;102013.31;;;6.85;100.00
47897;BME280;39629;51.400;5.494;2023-02-02T01:08:11;102012.41;;;6.84;100.00
47897;BME280;39629;51.400;5.494;2023-02-02T01:13:13;102008.78;;;6.79;100.00
47897;BME280;39629;51.400;5.494;2023-02-02T01:18:17;102012.50;;;6.87;100.00
47897;BME280;39629;51.400;5.494;2023-02-02T01:23:19;102023.16;;;6.93;100.00
47897;BME280;39629;51.400;5.494;2023-02-02T01:28:20;102013.19;;;6.81;100.00
47897;BME280;39629;51.400;5.494;2023-02-02T01:33:24;102016.00;;;6.88;100.00
47897;BME280;39629;51.400;5.494;2023-02-02T01:38:26;102022.84;;;6.84;100.00
47897;BME280;39629;51.400;5.494;2023-02-02T01:43:29;102022.59;;;6.75;100.00
47897;BME280;39629;51.400;5.494;2023-02-02T01:48:33;102024.66;;;6.85;100.00
47897;BME280;39629;51.400;5.494;2023-02-02T01:53:35;102014.28;;;6.88;100.00
47897;BME280;39629;51.400;5.494;2023-02-02T01:58:39;102019.38;;;6.84;100.00
47897;BME280;39629;51.400;5.494;2023-02-02T02:03:44;102011.47;;;6.82;100.00
47897;BME280;39629;51.400;5.494;2023-02-02T02:08:49;102015.66;;;6.77;100.00
47897;BME280;39629;51.400;5.494;2023-02-02T02:13:55;102014.97;;;6.82;100.00
47897;BME280;39629;51.400;5.494;2023-02-02T02:19:37;102014.13;;;6.84;100.00
47897;BME280;39629;51.400;5.494;2023-02-02T02:25:24;102012.41;;;6.84;100.00
47897;BME280;39629;51.400;5.494;2023-02-02T02:31:01;102012.44;;;6.86;100.00
47897;BME280;39629;51.400;5.494;2023-02-02T02:36:16;102020.19;;;6.82;100.00
47897;BME280;39629;51.400;5.494;2023-02-02T02:41:21;102029.97;;;6.88;100.00
47897;BME280;39629;51.400;5.494;2023-02-02T02:46:26;102018.28;;;6.77;100.00
47897;BME280;39629;51.400;5.494;2023-02-02T02:51:49;102015.72;;;6.78;100.00
47897;BME280;39629;51.400;5.494;2023-02-02T02:57:18;102017.50;;;6.79;100.00
47897;BME280;39629;51.400;5.494;2023-02-02T03:02:32;102029.75;;;6.80;100.00
47897;BME280;39629;51.400;5.494;2023-02-02T03:07:41;102028.13;;;6.86;100.00
47897;BME280;39629;51.400;5.494;2023-02-02T03:12:45;102023.72;;;6.83;100.00
47897;BME280;39629;51.400;5.494;2023-02-02T03:17:49;102022.72;;;6.79;100.00
47897;BME280;39629;51.400;5.494;2023-02-02T03:22:53;102016.50;;;6.76;100.00
47897;BME280;39629;51.400;5.494;2023-02-02T03:27:55;102026.09;;;6.75;100.00
47897;BME280;39629;51.400;5.494;2023-02-02T03:32:57;102030.66;;;6.82;100.00
47897;BME280;39629;51.400;5.494;2023-02-02T03:38:00;102029.69;;;6.79;100.00
47897;BME280;39629;51.400;5.494;2023-02-02T03:43:03;102018.28;;;6.77;100.00
47897;BME280;39629;51.400;5.494;2023-02-02T03:48:05;102013.09;;;6.78;100.00
47897;BME280;39629;51.400;5.494;2023-02-02T03:53:08;102016.66;;;6.80;100.00
47897;BME280;39629;51.400;5.494;2023-02-02T03:58:10;102033.44;;;6.87;100.00
47897;BME280;39629;51.400;5.494;2023-02-02T04:03:11;102030.09;;;6.91;100.00
47897;BME280;39629;51.400;5.494;2023-02-02T04:08:14;102036.19;;;6.92;100.00
47897;BME280;39629;51.400;5.494;2023-02-02T04:13:16;102038.56;;;6.84;100.00
47897;BME280;39629;51.400;5.494;2023-02-02T04:18:18;102048.16;;;6.84;100.00
47897;BME280;39629;51.400;5.494;2023-02-02T04:23:21;102032.53;;;6.87;100.00
47897;BME280;39629;51.400;5.494;2023-02-02T04:28:24;102045.72;;;6.90;100.00
47897;BME280;39629;51.400;5.494;2023-02-02T04:33:26;102040.16;;;6.79;100.00
47897;BME280;39629;51.400;5.494;2023-02-02T04:38:29;102053.56;;;6.90;100.00
47897;BME280;39629;51.400;5.494;2023-02-02T04:43:32;102061.09;;;6.79;100.00
47897;BME280;39629;51.400;5.494;2023-02-02T04:48:34;102071.69;;;6.84;100.00
47897;BME280;39629;51.400;5.494;2023-02-02T04:53:37;102051.59;;;6.82;100.00
47897;BME280;39629;51.400;5.494;2023-02-02T04:58:40;102056.91;;;6.86;100.00
47897;BME280;39629;51.400;5.494;2023-02-02T05:03:42;102052.28;;;6.77;100.00
47897;BME280;39629;51.400;5.494;2023-02-02T05:08:45;102050.50;;;6.76;100.00
47897;BME280;39629;51.400;5.494;2023-02-02T05:13:49;102042.66;;;6.76;100.00
47897;BME280;39629;51.400;5.494;2023-02-02T05:18:52;102058.63;;;6.84;100.00
47897;BME280;39629;51.400;5.494;2023-02-02T05:23:56;102069.00;;;6.80;100.00
47897;BME280;39629;51.400;5.494;2023-02-02T05:28:58;102068.53;;;6.94;100.00
47897;BME280;39629;51.400;5.494;2023-02-02T05:34:00;102077.03;;;6.87;100.00
47897;BME280;39629;51.400;5.494;2023-02-02T05:39:03;102067.69;;;6.95;100.00
47897;BME280;39629;51.400;5.494;2023-02-02T05:44:05;102081.66;;;6.95;100.00
47897;BME280;39629;51.400;5.494;2023-02-02T05:49:10;102075.31;;;6.87;100.00
47897;BME280;39629;51.400;5.494;2023-02-02T05:54:14;102068.47;;;6.92;100.00
47897;BME280;39629;51.400;5.494;2023-02-02T05:59:19;102071.19;;;6.95;100.00
47897;BME280;39629;51.400;5.494;2023-02-02T06:04:21;102064.03;;;6.90;100.00
47897;BME280;39629;51.400;5.494;2023-02-02T06:09:24;102085.38;;;7.02;100.00
47897;BME280;39629;51.400;5.494;2023-02-02T06:14:26;102089.50;;;6.95;100.00
47897;BME280;39629;51.400;5.494;2023-02-02T06:19:28;102085.38;;;7.02;100.00
47897;BME280;39629;51.400;5.494;2023-02-02T06:24:31;102072.97;;;6.96;100.00
47897;BME280;39629;51.400;5.494;2023-02-02T06:29:32;102081.81;;;7.00;100.00
47897;BME280;39629;51.400;5.494;2023-02-02T06:34:34;102087.25;;;7.06;100.00
47897;BME280;39629;51.400;5.494;2023-02-02T06:39:37;102095.09;;;7.06;100.00
47897;BME280;39629;51.400;5.494;2023-02-02T06:44:38;102097.63;;;7.03;100.00
47897;BME280;39629;51.400;5.494;2023-02-02T06:49:40;102092.00;;;6.91;100.00
47897;BME280;39629;51.400;5.494;2023-02-02T06:54:43;102101.31;;;6.82;100.00
47897;BME280;39629;51.400;5.494;2023-02-02T06:59:45;102101.75;;;6.96;100.00
47897;BME280;39629;51.400;5.494;2023-02-02T07:04:46;102114.81;;;6.95;100.00
47897;BME280;39629;51.400;5.494;2023-02-02T07:09:49;102119.94;;;6.92;100.00
47897;BME280;39629;51.400;5.494;2023-02-02T07:14:51;102121.59;;;6.90;100.00
47897;BME280;39629;51.400;5.494;2023-02-02T07:19:52;102124.63;;;7.02;100.00
47897;BME280;39629;51.400;5.494;2023-02-02T07:24:55;102125.31;;;6.96;100.00
47897;BME280;39629;51.400;5.494;2023-02-02T07:29:57;102136.88;;;7.03;100.00
47897;BME280;39629;51.400;5.494;2023-02-02T07:34:59;102125.53;;;7.03;100.00
47897;BME280;39629;51.400;5.494;2023-02-02T07:40:01;102123.47;;;6.94;100.00
47897;BME280;39629;51.400;5.494;2023-02-02T07:45:04;102133.13;;;6.95;100.00
47897;BME280;39629;51.400;5.494;2023-02-02T07:50:06;102135.66;;;6.92;100.00
47897;BME280;39629;51.400;5.494;2023-02-02T07:55:09;102131.34;;;6.94;100.00
47897;BME280;39629;51.400;5.494;2023-02-02T08:00:12;102148.72;;;6.92;100.00
47897;BME280;39629;51.400;5.494;2023-02-02T08:05:14;102142.66;;;6.93;100.00
47897;BME280;39629;51.400;5.494;2023-02-02T08:10:17;102154.09;;;6.96;100.00
47897;BME280;39629;51.400;5.494;2023-02-02T08:15:19;102153.41;;;7.02;100.00
47897;BME280;39629;51.400;5.494;2023-02-02T08:20:20;102162.28;;;7.06;100.00
47897;BME280;39629;51.400;5.494;2023-02-02T08:25:23;102163.38;;;7.12;100.00
47897;BME280;39629;51.400;5.494;2023-02-02T08:30:26;102172.16;;;7.14;100.00
47897;BME280;39629;51.400;5.494;2023-02-02T08:35:28;102178.44;;;7.20;100.00
47897;BME280;39629;51.400;5.494;2023-02-02T08:40:31;102178.28;;;7.15;100.00
47897;BME280;39629;51.400;5.494;2023-02-02T08:45:32;102182.72;;;7.18;100.00
47897;BME280;39629;51.400;5.494;2023-02-02T08:50:34;102199.56;;;7.26;100.00
47897;BME280;39629;51.400;5.494;2023-02-02T08:55:37;102204.91;;;7.29;100.00
47897;BME280;39629;51.400;5.494;2023-02-02T09:00:38;102215.50;;;7.32;100.00
47897;BME280;39629;51.400;5.494;2023-02-02T09:05:40;102234.91;;;7.39;100.00
47897;BME280;39629;51.400;5.494;2023-02-02T09:10:43;102234.97;;;7.40;100.00
47897;BME280;39629;51.400;5.494;2023-02-02T09:15:44;102233.44;;;7.47;100.00
47897;BME280;39629;51.400;5.494;2023-02-02T09:20:46;102243.97;;;7.48;100.00
47897;BME280;39629;51.400;5.494;2023-02-02T09:25:49;102260.66;;;7.52;100.00
47897;BME280;39629;51.400;5.494;2023-02-02T09:30:51;102255.53;;;7.55;100.00
47897;BME280;39629;51.400;5.494;2023-02-02T09:35:52;102261.84;;;7.62;100.00
47897;BME280;39629;51.400;5.494;2023-02-02T09:40:55;102268.06;;;7.65;100.00
47897;BME280;39629;51.400;5.494;2023-02-02T09:46:03;102278.75;;;7.72;100.00
47897;BME280;39629;51.400;5.494;2023-02-02T09:51:12;102291.91;;;7.73;100.00
47897;BME280;39629;51.400;5.494;2023-02-02T09:56:22;102299.72;;;7.72;100.00
47897;BME280;39629;51.400;5.494;2023-02-02T10:01:29;102305.94;;;7.75;100.00
47897;BME280;39629;51.400;5.494;2023-02-02T10:06:35;102320.09;;;7.80;100.00
47897;BME280;39629;51.400;5.494;2023-02-02T10:11:44;102322.59;;;7.77;100.00
47897;BME280;39629;51.400;5.494;2023-02-02T10:16:48;102318.13;;;7.73;100.00
47897;BME280;39629;51.400;5.494;2023-02-02T10:22:00;102312.97;;;7.76;100.00
47897;BME280;39629;51.400;5.494;2023-02-02T10:27:08;102312.25;;;7.80;100.00
47897;BME280;39629;51.400;5.494;2023-02-02T10:32:15;102306.13;;;7.81;100.00
47897;BME280;39629;51.400;5.494;2023-02-02T10:37:27;102314.50;;;7.97;100.00
47897;BME280;39629;51.400;5.494;2023-02-02T10:42:39;102313.03;;;8.05;100.00
47897;BME280;39629;51.400;5.494;2023-02-02T10:47:44;102312.75;;;8.25;100.00
47897;BME280;39629;51.400;5.494;2023-02-02T10:52:49;102309.25;;;8.26;100.00
47897;BME280;39629;51.400;5.494;2023-02-02T10:58:01;102312.03;;;8.30;100.00
47897;BME280;39629;51.400;5.494;2023-02-02T11:03:07;102325.09;;;8.29;100.00
47897;BME280;39629;51.400;5.494;2023-02-02T11:08:15;102333.97;;;8.34;100.00
47897;BME280;39629;51.400;5.494;2023-02-02T11:13:26;102344.22;;;8.25;100.00
47897;BME280;39629;51.400;5.494;2023-02-02T11:18:29;102326.81;;;8.28;100.00
47897;BME280;39629;51.400;5.494;2023-02-02T11:23:31;102335.81;;;8.37;100.00
47897;BME280;39629;51.400;5.494;2023-02-02T11:28:34;102331.59;;;8.42;100.00
47897;BME280;39629;51.400;5.494;2023-02-02T11:33:36;102325.28;;;8.35;100.00
47897;BME280;39629;51.400;5.494;2023-02-02T11:38:38;102318.25;;;8.34;100.00
47897;BME280;39629;51.400;5.494;2023-02-02T11:43:47;102339.13;;;8.31;100.00
47897;BME280;39629;51.400;5.494;2023-02-02T11:48:58;102327.16;;;8.39;100.00
47897;BME280;39629;51.400;5.494;2023-02-02T11:54:02;102326.28;;;8.39;100.00
47897;BME280;39629;51.400;5.494;2023-02-02T11:59:27;102316.78;;;8.44;100.00
47897;BME280;39629;51.400;5.494;2023-02-02T12:04:29;102311.69;;;8.48;100.00
47897;BME280;39629;51.400;5.494;2023-02-02T12:09:30;102310.19;;;8.57;100.00
47897;BME280;39629;51.400;5.494;2023-02-02T12:14:43;102314.00;;;8.68;100.00
47897;BME280;39629;51.400;5.494;2023-02-02T12:20:07;102305.22;;;8.67;100.00
47897;BME280;39629;51.400;5.494;2023-02-02T12:25:36;102298.34;;;8.71;100.00
47897;BME280;39629;51.400;5.494;2023-02-02T12:30:46;102293.81;;;8.65;100.00
47897;BME280;39629;51.400;5.494;2023-02-02T12:36:05;102291.41;;;8.73;100.00
47897;BME280;39629;51.400;5.494;2023-02-02T12:41:26;102293.34;;;8.80;100.00
47897;BME280;39629;51.400;5.494;2023-02-02T12:46:49;102291.50;;;8.76;100.00
47897;BME280;39629;51.400;5.494;2023-02-02T12:52:07;102291.41;;;8.73;100.00
47897;BME280;39629;51.400;5.494;2023-02-02T12:57:17;102287.47;;;8.89;100.00
47897;BME280;39629;51.400;5.494;2023-02-02T13:02:28;102277.97;;;8.94;100.00
47897;BME280;39629;51.400;5.494;2023-02-02T13:07:39;102294.22;;;8.81;100.00
47897;BME280;39629;51.400;5.494;2023-02-02T13:12:44;102284.88;;;8.91;100.00
47897;BME280;39629;51.400;5.494;2023-02-02T13:17:52;102274.06;;;8.80;100.00
47897;BME280;39629;51.400;5.494;2023-02-02T13:22:57;102279.31;;;8.80;100.00
47897;BME280;39629;51.400;5.494;2023-02-02T13:28:03;102281.19;;;8.84;100.00
47897;BME280;39629;51.400;5.494;2023-02-02T13:33:14;102285.38;;;8.77;100.00
47897;BME280;39629;51.400;5.494;2023-02-02T13:38:20;102277.34;;;8.71;100.00
47897;BME280;39629;51.400;5.494;2023-02-02T13:43:38;102287.56;;;8.62;100.00
47897;BME280;39629;51.400;5.494;2023-02-02T13:48:52;102290.78;;;8.51;100.00
47897;BME280;39629;51.400;5.494;2023-02-02T13:54:18;102290.59;;;8.45;100.00
47897;BME280;39629;51.400;5.494;2023-02-02T13:59:40;102284.34;;;8.40;100.00
47897;BME280;39629;51.400;5.494;2023-02-02T14:04:53;102282.78;;;8.47;100.00
47897;BME280;39629;51.400;5.494;2023-02-02T14:09:55;102277.47;;;8.45;100.00
47897;BME280;39629;51.400;5.494;2023-02-02T14:14:57;102280.97;;;8.44;100.00
47897;BME280;39629;51.400;5.494;2023-02-02T14:20:01;102275.63;;;8.41;100.00
47897;BME280;39629;51.400;5.494;2023-02-02T14:36:36;102311.41;;;8.10;100.00
47897;BME280;39629;51.400;5.494;2023-02-02T14:47:40;102317.13;;;7.97;100.00
47897;BME280;39629;51.400;5.494;2023-02-02T14:52:43;102324.28;;;7.75;100.00
47897;BME280;39629;51.400;5.494;2023-02-02T14:57:53;102319.94;;;7.76;100.00
47897;BME280;39629;51.400;5.494;2023-02-02T15:02:55;102333.72;;;7.70;100.00
47897;BME280;39629;51.400;5.494;2023-02-02T15:08:11;102335.19;;;7.62;100.00
47897;BME280;39629;51.400;5.494;2023-02-02T15:13:16;102336.16;;;7.64;100.00
47897;BME280;39629;51.400;5.494;2023-02-02T15:18:24;102344.75;;;7.60;100.00
47897;BME280;39629;51.400;5.494;2023-02-02T15:23:32;102337.69;;;7.57;100.00
47897;BME280;39629;51.400;5.494;2023-02-02T15:28:41;102340.03;;;7.49;100.00
47897;BME280;39629;51.400;5.494;2023-02-02T15:33:46;102339.00;;;7.44;100.00
47897;BME280;39629;51.400;5.494;2023-02-02T15:38:52;102346.75;;;7.41;100.00
47897;BME280;39629;51.400;5.494;2023-02-02T15:43:55;102351.75;;;7.35;100.00
47897;BME280;39629;51.400;5.494;2023-02-02T15:49:24;102351.56;;;7.29;100.00
47897;BME280;39629;51.400;5.494;2023-02-02T15:54:30;102366.38;;;7.28;100.00
47897;BME280;39629;51.400;5.494;2023-02-02T15:59:38;102367.16;;;7.26;100.00
47897;BME280;39629;51.400;5.494;2023-02-02T16:04:42;102368.88;;;7.25;100.00
47897;BME280;39629;51.400;5.494;2023-02-02T16:09:46;102373.00;;;7.19;100.00
47897;BME280;39629;51.400;5.494;2023-02-02T16:14:49;102384.31;;;7.18;100.00
47897;BME280;39629;51.400;5.494;2023-02-02T16:19:57;102388.66;;;7.17;100.00
47897;BME280;39629;51.400;5.494;2023-02-02T16:25:04;102398.25;;;7.17;100.00
47897;BME280;39629;51.400;5.494;2023-02-02T16:30:08;102398.13;;;7.13;100.00
47897;BME280;39629;51.400;5.494;2023-02-02T16:35:30;102398.94;;;7.11;100.00
47897;BME280;39629;51.400;5.494;2023-02-02T16:40:33;102398.94;;;7.11;100.00
47897;BME280;39629;51.400;5.494;2023-02-02T16:45:43;102404.94;;;7.08;100.00
47897;BME280;39629;51.400;5.494;2023-02-02T16:50:47;102406.72;;;7.09;100.00
47897;BME280;39629;51.400;5.494;2023-02-02T16:56:04;102415.34;;;7.07;100.00
47897;BME280;39629;51.400;5.494;2023-02-02T17:01:09;102427.69;;;7.09;100.00
47897;BME280;39629;51.400;5.494;2023-02-02T17:06:12;102437.28;;;7.10;100.00
47897;BME280;39629;51.400;5.494;2023-02-02T17:11:22;102443.59;;;7.15;100.00
47897;BME280;39629;51.400;5.494;2023-02-02T17:16:24;102439.13;;;7.13;100.00
47897;BME280;39629;51.400;5.494;2023-02-02T17:21:26;102447.03;;;7.14;100.00
47897;BME280;39629;51.400;5.494;2023-02-02T17:26:29;102440.97;;;7.15;100.00
47897;BME280;39629;51.400;5.494;2023-02-02T17:31:30;102440.97;;;7.15;100.00
47897;BME280;39629;51.400;5.494;2023-02-02T17:36:32;102445.59;;;7.23;100.00
47897;BME280;39629;51.400;5.494;2023-02-02T17:41:35;102445.38;;;7.17;100.00
47897;BME280;39629;51.400;5.494;2023-02-02T17:46:38;102446.63;;;7.26;100.00
47897;BME280;39629;51.400;5.494;2023-02-02T17:51:40;102443.69;;;7.19;100.00
47897;BME280;39629;51.400;5.494;2023-02-02T17:56:44;102453.50;;;7.24;100.00
47897;BME280;39629;51.400;5.494;2023-02-02T18:01:46;102441.84;;;7.16;100.00
47897;BME280;39629;51.400;5.494;2023-02-02T18:06:48;102451.34;;;7.12;100.00
47897;BME280;39629;51.400;5.494;2023-02-02T18:11:51;102450.38;;;7.10;100.00
47897;BME280;39629;51.400;5.494;2023-02-02T18:16:53;102445.19;;;7.12;100.00
47897;BME280;39629;51.400;5.494;2023-02-02T18:21:55;102440.00;;;7.13;100.00
47897;BME280;39629;51.400;5.494;2023-02-02T18:26:58;102433.13;;;7.15;100.00
47897;BME280;39629;51.400;5.494;2023-02-02T18:32:00;102428.00;;;7.19;100.00
47897;BME280;39629;51.400;5.494;2023-02-02T18:37:02;102424.50;;;7.18;100.00
47897;BME280;39629;51.400;5.494;2023-02-02T18:42:05;102416.91;;;7.26;100.00
47897;BME280;39629;51.400;5.494;2023-02-02T18:47:07;102420.25;;;7.22;100.00
47897;BME280;39629;51.400;5.494;2023-02-02T18:52:08;102417.63;;;7.22;100.00
47897;BME280;39629;51.400;5.494;2023-02-02T18:57:12;102417.41;;;7.15;100.00
47897;BME280;39629;51.400;5.494;2023-02-02T19:02:15;102424.69;;;7.24;100.00
47897;BME280;39629;51.400;5.494;2023-02-02T19:07:17;102426.38;;;7.22;100.00
47897;BME280;39629;51.400;5.494;2023-02-02T19:12:38;102431.84;;;7.28;100.00
47897;BME280;39629;51.400;5.494;2023-02-02T19:17:40;102427.75;;;7.37;100.00
47897;BME280;39629;51.400;5.494;2023-02-02T19:22:42;102436.16;;;7.26;100.00
47897;BME280;39629;51.400;5.494;2023-02-02T19:27:45;102423.94;;;7.27;100.00
47897;BME280;39629;51.400;5.494;2023-02-02T19:32:47;102428.38;;;7.29;100.00
47897;BME280;39629;51.400;5.494;2023-02-02T19:37:59;102428.28;;;7.26;100.00
47897;BME280;39629;51.400;5.494;2023-02-02T19:43:22;102429.31;;;7.31;100.00
47897;BME280;39629;51.400;5.494;2023-02-02T19:48:26;102413.50;;;7.28;100.00
47897;BME280;39629;51.400;5.494;2023-02-02T19:53:34;102414.03;;;7.18;100.00
47897;BME280;39629;51.400;5.494;2023-02-02T19:58:39;102417.19;;;7.09;100.00
47897;BME280;39629;51.400;5.494;2023-02-02T20:03:40;102418.44;;;7.19;100.00
47897;BME280;39629;51.400;5.494;2023-02-02T20:08:45;102417.06;;;7.06;100.00
47897;BME280;39629;51.400;5.494;2023-02-02T20:13:49;102422.44;;;7.09;100.00
47897;BME280;39629;51.400;5.494;2023-02-02T20:18:53;102424.38;;;7.15;100.00
47897;BME280;39629;51.400;5.494;2023-02-02T20:23:55;102418.84;;;7.07;100.00
47897;BME280;39629;51.400;5.494;2023-02-02T20:29:00;102425.16;;;7.12;100.00
47897;BME280;39629;51.400;5.494;2023-02-02T20:34:17;102427.69;;;7.09;100.00
47897;BME280;39629;51.400;5.494;2023-02-02T20:39:31;102418.59;;;7.24;100.00
47897;BME280;39629;51.400;5.494;2023-02-02T20:44:34;102419.22;;;7.17;100.00
47897;BME280;39629;51.400;5.494;2023-02-02T20:49:37;102426.50;;;7.25;100.00
47897;BME280;39629;51.400;5.494;2023-02-02T20:54:38;102431.31;;;7.14;100.00
47897;BME280;39629;51.400;5.494;2023-02-02T20:59:41;102438.50;;;7.20;100.00
47897;BME280;39629;51.400;5.494;2023-02-02T21:04:44;102439.75;;;7.06;100.00
47897;BME280;39629;51.400;5.494;2023-02-02T21:09:48;102447.03;;;7.14;100.00
47897;BME280;39629;51.400;5.494;2023-02-02T21:14:52;102447.16;;;7.18;100.00
47897;BME280;39629;51.400;5.494;2023-02-02T21:19:54;102441.53;;;7.07;100.00
47897;BME280;39629;51.400;5.494;2023-02-02T21:24:56;102443.50;;;7.12;100.00
47897;BME280;39629;51.400;5.494;2023-02-02T21:29:59;102442.38;;;7.30;100.00
47897;BME280;39629;51.400;5.494;2023-02-02T21:35:00;102444.88;;;7.27;100.00
47897;BME280;39629;51.400;5.494;2023-02-02T21:40:11;102449.00;;;7.20;100.00
47897;BME280;39629;51.400;5.494;2023-02-02T21:45:34;102446.41;;;7.22;100.00
47897;BME280;39629;51.400;5.494;2023-02-02T21:50:39;102451.97;;;7.29;100.00
47897;BME280;39629;51.400;5.494;2023-02-02T21:55:43;102445.94;;;7.32;100.00
47897;BME280;39629;51.400;5.494;2023-02-02T22:00:46;102447.59;;;7.30;100.00
47897;BME280;39629;51.400;5.494;2023-02-02T22:05:48;102451.25;;;7.33;100.00
47897;BME280;39629;51.400;5.494;2023-02-02T22:10:50;102446.03;;;7.35;100.00
47897;BME280;39629;51.400;5.494;2023-02-02T22:15:53;102444.22;;;7.32;100.00
47897;BME280;39629;51.400;5.494;2023-02-02T22:20:55;102447.75;;;7.33;100.00
47897;BME280;39629;51.400;5.494;2023-02-02T22:25:57;102449.75;;;7.40;100.00
47897;BME280;39629;51.400;5.494;2023-02-02T22:31:00;102454.72;;;7.34;100.00
47897;BME280;39629;51.400;5.494;2023-02-02T22:36:02;102449.75;;;7.40;100.00
47897;BME280;39629;51.400;5.494;2023-02-02T22:41:03;102437.31;;;7.35;100.00
47897;BME280;39629;51.400;5.494;2023-02-02T22:46:06;102447.75;;;7.33;100.00
47897;BME280;39629;51.400;5.494;2023-02-02T22:51:08;102448.16;;;7.45;100.00
47897;BME280;39629;51.400;5.494;2023-02-02T22:56:10;102438.47;;;7.43;100.00
47897;BME280;39629;51.400;5.494;2023-02-02T23:01:13;102438.69;;;7.49;100.00
47897;BME280;39629;51.400;5.494;2023-02-02T23:06:14;102446.59;;;7.50;100.00
47897;BME280;39629;51.400;5.494;2023-02-02T23:11:16;102454.44;;;7.50;100.00
47897;BME280;39629;51.400;5.494;2023-02-02T23:16:19;102438.72;;;7.50;100.00
47897;BME280;39629;51.400;5.494;2023-02-02T23:21:20;102430.03;;;7.52;100.00
47897;BME280;39629;51.400;5.494;2023-02-02T23:26:22;102417.16;;;7.58;100.00
47897;BME280;39629;51.400;5.494;2023-02-02T23:31:25;102410.19;;;7.58;100.00
47897;BME280;39629;51.400;5.494;2023-02-02T23:36:27;102407.47;;;7.55;100.00
47897;BME280;39629;51.400;5.494;2023-02-02T23:41:29;102375.13;;;7.55;100.00
47897;BME280;39629;51.400;5.494;2023-02-02T23:46:31;102357.63;;;7.54;100.00
47897;BME280;39629;51.400;5.494;2023-02-02T23:51:33;102359.41;;;7.55;100.00
47897;BME280;39629;51.400;5.494;2023-02-02T23:56:35;102370.13;;;7.61;100.00
